sensor_id;sensor_type;location;lat;lon;timestamp;P1;durP1;ratioP1;P2;durP2;ratioP2
38611;SDS011;24368;52.156;20.788;2024-02-16T00:01:53;19.90;;;15.30;;
38611;SDS011;24368;52.156;20.788;2024-02-16T00:06:56;18.60;;;15.60;;
38611;SDS011;24368;52.156;20.788;2024-02-16T00:11:58;15.50;;;13.80;;
38611;SDS011;24368;52.156;20.788;2024-02-16T00:17:00;16.50;;;14.20;;
38611;SDS011;24368;52.156;20.788;2024-02-16T00:22:03;16.80;;;14.30;;
38611;SDS011;24368;52.156;20.788;2024-02-16T00:27:05;16.70;;;14.30;;
38611;SDS011;24368;52.156;20.788;2024-02-16T00:32:07;19.40;;;14.60;;
38611;SDS011;24368;52.156;20.788;2024-02-16T00:37:09;17.80;;;14.20;;
38611;SDS011;24368;52.156;20.788;2024-02-16T00:42:13;17.70;;;13.70;;
38611;SDS011;24368;52.156;20.788;2024-02-16T00:47:15;16.80;;;13.40;;
38611;SDS011;24368;52.156;20.788;2024-02-16T00:52:18;15.80;;;12.50;;
38611;SDS011;24368;52.156;20.788;2024-02-16T00:57:21;17.60;;;14.20;;
38611;SDS011;24368;52.156;20.788;2024-02-16T01:12:58;15.50;;;12.50;;
38611;SDS011;24368;52.156;20.788;2024-02-16T01:18:00;16.70;;;12.80;;
38611;SDS011;24368;52.156;20.788;2024-02-16T01:23:03;16.30;;;13.00;;
38611;SDS011;24368;52.156;20.788;2024-02-16T01:28:07;13.50;;;11.50;;
38611;SDS011;24368;52.156;20.788;2024-02-16T01:33:09;13.10;;;11.70;;
38611;SDS011;24368;52.156;20.788;2024-02-16T01:38:12;13.80;;;10.90;;
38611;SDS011;24368;52.156;20.788;2024-02-16T01:43:20;16.00;;;11.50;;
38611;SDS011;24368;52.156;20.788;2024-02-16T01:48:24;13.60;;;10.40;;
38611;SDS011;24368;52.156;20.788;2024-02-16T01:53:27;13.40;;;11.20;;
38611;SDS011;24368;52.156;20.788;2024-02-16T01:58:30;12.90;;;10.40;;
38611;SDS011;24368;52.156;20.788;2024-02-16T02:03:32;11.10;;;9.80;;
38611;SDS011;24368;52.156;20.788;2024-02-16T02:08:37;11.30;;;10.20;;
38611;SDS011;24368;52.156;20.788;2024-02-16T02:13:40;12.90;;;10.80;;
38611;SDS011;24368;52.156;20.788;2024-02-16T02:18:44;13.20;;;10.30;;
38611;SDS011;24368;52.156;20.788;2024-02-16T02:23:47;12.70;;;10.80;;
38611;SDS011;24368;52.156;20.788;2024-02-16T02:28:49;13.70;;;11.10;;
38611;SDS011;24368;52.156;20.788;2024-02-16T02:33:51;14.70;;;11.30;;
38611;SDS011;24368;52.156;20.788;2024-02-16T02:38:54;12.30;;;10.80;;
38611;SDS011;24368;52.156;20.788;2024-02-16T02:43:59;11.50;;;10.30;;
38611;SDS011;24368;52.156;20.788;2024-02-16T02:49:01;12.30;;;11.00;;
38611;SDS011;24368;52.156;20.788;2024-02-16T02:54:05;14.50;;;10.80;;
38611;SDS011;24368;52.156;20.788;2024-02-16T02:59:07;13.00;;;11.00;;
38611;SDS011;24368;52.156;20.788;2024-02-16T03:04:10;14.80;;;11.00;;
38611;SDS011;24368;52.156;20.788;2024-02-16T03:09:12;12.20;;;10.50;;
38611;SDS011;24368;52.156;20.788;2024-02-16T03:14:18;11.50;;;10.30;;
38611;SDS011;24368;52.156;20.788;2024-02-16T03:19:20;14.90;;;10.40;;
38611;SDS011;24368;52.156;20.788;2024-02-16T03:24:22;11.90;;;9.70;;
38611;SDS011;24368;52.156;20.788;2024-02-16T03:29:24;11.90;;;10.30;;
38611;SDS011;24368;52.156;20.788;2024-02-16T03:34:27;12.40;;;10.50;;
38611;SDS011;24368;52.156;20.788;2024-02-16T03:39:29;12.80;;;10.00;;
38611;SDS011;24368;52.156;20.788;2024-02-16T03:44:31;12.40;;;9.90;;
38611;SDS011;24368;52.156;20.788;2024-02-16T03:49:34;13.40;;;9.70;;
38611;SDS011;24368;52.156;20.788;2024-02-16T03:54:37;14.00;;;10.70;;
38611;SDS011;24368;52.156;20.788;2024-02-16T03:59:42;12.60;;;9.20;;
38611;SDS011;24368;52.156;20.788;2024-02-16T04:04:48;12.30;;;10.30;;
38611;SDS011;24368;52.156;20.788;2024-02-16T04:09:50;11.30;;;9.40;;
38611;SDS011;24368;52.156;20.788;2024-02-16T04:14:53;11.80;;;10.00;;
38611;SDS011;24368;52.156;20.788;2024-02-16T04:19:55;11.80;;;9.70;;
38611;SDS011;24368;52.156;20.788;2024-02-16T04:24:56;12.10;;;9.90;;
38611;SDS011;24368;52.156;20.788;2024-02-16T04:29:59;12.70;;;10.20;;
38611;SDS011;24368;52.156;20.788;2024-02-16T04:35:01;16.20;;;11.10;;
38611;SDS011;24368;52.156;20.788;2024-02-16T04:40:03;14.20;;;11.40;;
38611;SDS011;24368;52.156;20.788;2024-02-16T04:45:07;12.90;;;10.90;;
38611;SDS011;24368;52.156;20.788;2024-02-16T04:50:12;12.20;;;10.30;;
38611;SDS011;24368;52.156;20.788;2024-02-16T04:55:15;14.00;;;12.00;;
38611;SDS011;24368;52.156;20.788;2024-02-16T05:00:17;13.20;;;10.60;;
38611;SDS011;24368;52.156;20.788;2024-02-16T05:05:19;15.80;;;11.60;;
38611;SDS011;24368;52.156;20.788;2024-02-16T05:21:32;13.80;;;11.80;;
38611;SDS011;24368;52.156;20.788;2024-02-16T05:26:36;17.20;;;12.70;;
38611;SDS011;24368;52.156;20.788;2024-02-16T05:31:38;16.40;;;11.60;;
38611;SDS011;24368;52.156;20.788;2024-02-16T05:36:41;16.60;;;12.50;;
38611;SDS011;24368;52.156;20.788;2024-02-16T05:41:44;19.60;;;12.30;;
38611;SDS011;24368;52.156;20.788;2024-02-16T05:46:46;18.90;;;12.70;;
38611;SDS011;24368;52.156;20.788;2024-02-16T05:51:50;14.90;;;12.80;;
38611;SDS011;24368;52.156;20.788;2024-02-16T05:57:11;15.10;;;12.10;;
38611;SDS011;24368;52.156;20.788;2024-02-16T06:02:16;16.40;;;13.00;;
38611;SDS011;24368;52.156;20.788;2024-02-16T06:07:20;17.00;;;13.40;;
38611;SDS011;24368;52.156;20.788;2024-02-16T06:12:24;14.10;;;11.80;;
38611;SDS011;24368;52.156;20.788;2024-02-16T06:17:27;13.40;;;10.90;;
38611;SDS011;24368;52.156;20.788;2024-02-16T06:22:29;14.30;;;10.60;;
38611;SDS011;24368;52.156;20.788;2024-02-16T06:27:33;14.30;;;10.70;;
38611;SDS011;24368;52.156;20.788;2024-02-16T06:32:37;12.70;;;10.90;;
38611;SDS011;24368;52.156;20.788;2024-02-16T06:37:39;12.30;;;10.60;;
38611;SDS011;24368;52.156;20.788;2024-02-16T06:42:41;14.30;;;11.10;;
38611;SDS011;24368;52.156;20.788;2024-02-16T06:47:43;12.30;;;10.30;;
38611;SDS011;24368;52.156;20.788;2024-02-16T06:52:46;14.50;;;11.00;;
38611;SDS011;24368;52.156;20.788;2024-02-16T06:57:48;14.80;;;12.00;;
38611;SDS011;24368;52.156;20.788;2024-02-16T07:02:52;13.80;;;11.70;;
38611;SDS011;24368;52.156;20.788;2024-02-16T07:07:54;14.80;;;11.10;;
38611;SDS011;24368;52.156;20.788;2024-02-16T07:25:04;14.40;;;10.80;;
38611;SDS011;24368;52.156;20.788;2024-02-16T07:30:08;12.50;;;10.10;;
38611;SDS011;24368;52.156;20.788;2024-02-16T07:35:13;12.00;;;10.70;;
38611;SDS011;24368;52.156;20.788;2024-02-16T07:40:15;16.30;;;11.20;;
38611;SDS011;24368;52.156;20.788;2024-02-16T07:45:18;13.50;;;10.90;;
38611;SDS011;24368;52.156;20.788;2024-02-16T07:50:22;16.80;;;10.70;;
38611;SDS011;24368;52.156;20.788;2024-02-16T07:55:24;12.10;;;10.50;;
38611;SDS011;24368;52.156;20.788;2024-02-16T08:00:26;13.80;;;12.20;;
38611;SDS011;24368;52.156;20.788;2024-02-16T08:05:30;16.10;;;11.40;;
38611;SDS011;24368;52.156;20.788;2024-02-16T08:10:32;16.00;;;11.80;;
38611;SDS011;24368;52.156;20.788;2024-02-16T08:15:35;16.50;;;12.60;;
38611;SDS011;24368;52.156;20.788;2024-02-16T08:20:38;16.00;;;12.70;;
38611;SDS011;24368;52.156;20.788;2024-02-16T08:25:41;13.70;;;11.80;;
38611;SDS011;24368;52.156;20.788;2024-02-16T08:30:43;14.00;;;10.90;;
38611;SDS011;24368;52.156;20.788;2024-02-16T08:35:45;12.70;;;11.30;;
38611;SDS011;24368;52.156;20.788;2024-02-16T08:40:48;13.70;;;12.10;;
38611;SDS011;24368;52.156;20.788;2024-02-16T08:50:56;12.30;;;10.30;;
38611;SDS011;24368;52.156;20.788;2024-02-16T08:55:58;13.40;;;9.90;;
38611;SDS011;24368;52.156;20.788;2024-02-16T09:01:00;12.00;;;9.80;;
38611;SDS011;24368;52.156;20.788;2024-02-16T09:06:03;12.70;;;10.10;;
38611;SDS011;24368;52.156;20.788;2024-02-16T09:11:06;10.60;;;9.50;;
38611;SDS011;24368;52.156;20.788;2024-02-16T09:16:08;12.20;;;9.70;;
38611;SDS011;24368;52.156;20.788;2024-02-16T09:21:11;13.20;;;9.70;;
38611;SDS011;24368;52.156;20.788;2024-02-16T09:26:13;12.10;;;8.70;;
38611;SDS011;24368;52.156;20.788;2024-02-16T09:31:15;11.20;;;8.80;;
38611;SDS011;24368;52.156;20.788;2024-02-16T09:36:18;9.60;;;8.50;;
38611;SDS011;24368;52.156;20.788;2024-02-16T09:41:20;10.00;;;9.00;;
38611;SDS011;24368;52.156;20.788;2024-02-16T09:46:22;10.60;;;8.40;;
38611;SDS011;24368;52.156;20.788;2024-02-16T09:51:26;12.70;;;8.50;;
38611;SDS011;24368;52.156;20.788;2024-02-16T09:56:28;11.10;;;9.40;;
38611;SDS011;24368;52.156;20.788;2024-02-16T10:01:31;9.90;;;8.60;;
38611;SDS011;24368;52.156;20.788;2024-02-16T10:06:32;9.40;;;8.10;;
38611;SDS011;24368;52.156;20.788;2024-02-16T10:11:35;9.30;;;8.30;;
38611;SDS011;24368;52.156;20.788;2024-02-16T10:16:37;9.20;;;8.30;;
38611;SDS011;24368;52.156;20.788;2024-02-16T10:21:39;9.70;;;8.70;;
38611;SDS011;24368;52.156;20.788;2024-02-16T10:26:41;10.70;;;8.70;;
38611;SDS011;24368;52.156;20.788;2024-02-16T10:31:45;12.20;;;10.50;;
38611;SDS011;24368;52.156;20.788;2024-02-16T10:36:49;13.40;;;9.70;;
38611;SDS011;24368;52.156;20.788;2024-02-16T10:41:52;10.50;;;9.50;;
38611;SDS011;24368;52.156;20.788;2024-02-16T10:46:55;12.70;;;10.90;;
38611;SDS011;24368;52.156;20.788;2024-02-16T10:51:58;14.20;;;10.70;;
38611;SDS011;24368;52.156;20.788;2024-02-16T10:57:01;11.60;;;10.50;;
38611;SDS011;24368;52.156;20.788;2024-02-16T11:02:06;13.70;;;10.40;;
38611;SDS011;24368;52.156;20.788;2024-02-16T11:07:13;12.30;;;10.80;;
38611;SDS011;24368;52.156;20.788;2024-02-16T11:12:17;11.50;;;10.00;;
38611;SDS011;24368;52.156;20.788;2024-02-16T11:17:20;14.20;;;11.30;;
38611;SDS011;24368;52.156;20.788;2024-02-16T11:22:26;11.60;;;10.40;;
38611;SDS011;24368;52.156;20.788;2024-02-16T11:27:31;12.40;;;11.10;;
38611;SDS011;24368;52.156;20.788;2024-02-16T11:32:35;11.50;;;10.30;;
38611;SDS011;24368;52.156;20.788;2024-02-16T11:37:37;13.70;;;12.20;;
38611;SDS011;24368;52.156;20.788;2024-02-16T11:42:40;12.10;;;10.70;;
38611;SDS011;24368;52.156;20.788;2024-02-16T11:47:45;16.10;;;14.40;;
38611;SDS011;24368;52.156;20.788;2024-02-16T11:52:47;11.50;;;9.90;;
38611;SDS011;24368;52.156;20.788;2024-02-16T11:57:49;11.90;;;10.80;;
38611;SDS011;24368;52.156;20.788;2024-02-16T12:02:58;11.70;;;10.60;;
38611;SDS011;24368;52.156;20.788;2024-02-16T12:08:02;11.00;;;9.80;;
38611;SDS011;24368;52.156;20.788;2024-02-16T12:13:04;11.10;;;10.10;;
38611;SDS011;24368;52.156;20.788;2024-02-16T12:18:07;11.30;;;10.40;;
38611;SDS011;24368;52.156;20.788;2024-02-16T12:23:12;10.20;;;9.20;;
38611;SDS011;24368;52.156;20.788;2024-02-16T12:28:15;10.50;;;9.60;;
38611;SDS011;24368;52.156;20.788;2024-02-16T12:33:17;8.90;;;8.00;;
38611;SDS011;24368;52.156;20.788;2024-02-16T12:38:19;8.90;;;8.00;;
38611;SDS011;24368;52.156;20.788;2024-02-16T12:43:22;7.90;;;7.10;;
38611;SDS011;24368;52.156;20.788;2024-02-16T12:48:24;8.00;;;6.50;;
38611;SDS011;24368;52.156;20.788;2024-02-16T12:53:28;7.50;;;6.70;;
38611;SDS011;24368;52.156;20.788;2024-02-16T13:03:35;7.00;;;6.30;;
38611;SDS011;24368;52.156;20.788;2024-02-16T13:08:38;7.60;;;6.40;;
38611;SDS011;24368;52.156;20.788;2024-02-16T13:13:40;7.50;;;6.70;;
38611;SDS011;24368;52.156;20.788;2024-02-16T13:18:41;6.60;;;6.00;;
38611;SDS011;24368;52.156;20.788;2024-02-16T13:23:44;6.00;;;5.50;;
38611;SDS011;24368;52.156;20.788;2024-02-16T13:28:46;6.30;;;5.70;;
38611;SDS011;24368;52.156;20.788;2024-02-16T13:33:48;6.40;;;5.80;;
38611;SDS011;24368;52.156;20.788;2024-02-16T13:38:50;7.60;;;6.90;;
38611;SDS011;24368;52.156;20.788;2024-02-16T13:43:54;6.50;;;5.80;;
38611;SDS011;24368;52.156;20.788;2024-02-16T13:48:56;9.60;;;6.60;;
38611;SDS011;24368;52.156;20.788;2024-02-16T13:53:58;6.80;;;6.10;;
38611;SDS011;24368;52.156;20.788;2024-02-16T13:59:01;7.00;;;6.40;;
38611;SDS011;24368;52.156;20.788;2024-02-16T14:04:06;7.40;;;6.30;;
38611;SDS011;24368;52.156;20.788;2024-02-16T14:09:09;7.20;;;6.50;;
38611;SDS011;24368;52.156;20.788;2024-02-16T14:14:11;8.30;;;6.50;;
38611;SDS011;24368;52.156;20.788;2024-02-16T14:19:13;9.50;;;7.00;;
38611;SDS011;24368;52.156;20.788;2024-02-16T14:24:16;8.10;;;6.80;;
38611;SDS011;24368;52.156;20.788;2024-02-16T14:29:19;8.80;;;7.00;;
38611;SDS011;24368;52.156;20.788;2024-02-16T14:34:21;7.40;;;6.60;;
38611;SDS011;24368;52.156;20.788;2024-02-16T14:39:24;7.70;;;7.00;;
38611;SDS011;24368;52.156;20.788;2024-02-16T14:44:27;8.50;;;7.60;;
38611;SDS011;24368;52.156;20.788;2024-02-16T14:49:29;8.20;;;7.30;;
38611;SDS011;24368;52.156;20.788;2024-02-16T14:54:33;9.30;;;7.00;;
38611;SDS011;24368;52.156;20.788;2024-02-16T14:59:35;9.00;;;7.80;;
38611;SDS011;24368;52.156;20.788;2024-02-16T15:04:37;10.20;;;7.50;;
38611;SDS011;24368;52.156;20.788;2024-02-16T15:09:39;8.20;;;6.70;;
38611;SDS011;24368;52.156;20.788;2024-02-16T15:14:41;8.90;;;7.10;;
38611;SDS011;24368;52.156;20.788;2024-02-16T15:19:44;8.80;;;6.70;;
38611;SDS011;24368;52.156;20.788;2024-02-16T15:24:46;7.60;;;6.60;;
38611;SDS011;24368;52.156;20.788;2024-02-16T15:29:48;7.40;;;6.70;;
38611;SDS011;24368;52.156;20.788;2024-02-16T15:34:51;9.70;;;8.30;;
38611;SDS011;24368;52.156;20.788;2024-02-16T15:39:55;8.70;;;6.60;;
38611;SDS011;24368;52.156;20.788;2024-02-16T15:45:01;13.40;;;9.80;;
38611;SDS011;24368;52.156;20.788;2024-02-16T15:50:06;9.50;;;7.30;;
38611;SDS011;24368;52.156;20.788;2024-02-16T15:55:08;7.90;;;7.20;;
38611;SDS011;24368;52.156;20.788;2024-02-16T16:00:11;7.60;;;6.90;;
38611;SDS011;24368;52.156;20.788;2024-02-16T16:05:13;7.20;;;6.50;;
38611;SDS011;24368;52.156;20.788;2024-02-16T16:10:15;9.70;;;8.80;;
38611;SDS011;24368;52.156;20.788;2024-02-16T16:15:21;8.30;;;7.40;;
38611;SDS011;24368;52.156;20.788;2024-02-16T16:20:23;7.20;;;6.50;;
38611;SDS011;24368;52.156;20.788;2024-02-16T16:25:26;9.80;;;6.90;;
38611;SDS011;24368;52.156;20.788;2024-02-16T16:30:27;6.80;;;6.10;;
38611;SDS011;24368;52.156;20.788;2024-02-16T16:35:30;9.30;;;7.60;;
38611;SDS011;24368;52.156;20.788;2024-02-16T16:40:32;7.40;;;6.60;;
38611;SDS011;24368;52.156;20.788;2024-02-16T16:45:36;9.70;;;7.00;;
38611;SDS011;24368;52.156;20.788;2024-02-16T16:50:39;7.60;;;6.90;;
38611;SDS011;24368;52.156;20.788;2024-02-16T16:55:42;9.00;;;8.10;;
38611;SDS011;24368;52.156;20.788;2024-02-16T17:00:46;9.10;;;8.10;;
38611;SDS011;24368;52.156;20.788;2024-02-16T17:05:48;10.70;;;9.00;;
38611;SDS011;24368;52.156;20.788;2024-02-16T17:10:50;9.70;;;8.70;;
38611;SDS011;24368;52.156;20.788;2024-02-16T17:15:53;10.50;;;8.80;;
38611;SDS011;24368;52.156;20.788;2024-02-16T17:20:55;10.20;;;9.10;;
38611;SDS011;24368;52.156;20.788;2024-02-16T17:25:57;10.30;;;9.30;;
38611;SDS011;24368;52.156;20.788;2024-02-16T17:31:00;13.10;;;9.80;;
38611;SDS011;24368;52.156;20.788;2024-02-16T17:36:02;10.50;;;9.50;;
38611;SDS011;24368;52.156;20.788;2024-02-16T17:41:05;11.70;;;10.50;;
38611;SDS011;24368;52.156;20.788;2024-02-16T17:46:07;12.90;;;10.30;;
38611;SDS011;24368;52.156;20.788;2024-02-16T17:51:09;13.30;;;11.20;;
38611;SDS011;24368;52.156;20.788;2024-02-16T17:56:11;13.60;;;11.60;;
38611;SDS011;24368;52.156;20.788;2024-02-16T18:01:13;14.00;;;12.00;;
38611;SDS011;24368;52.156;20.788;2024-02-16T18:06:16;15.30;;;13.00;;
38611;SDS011;24368;52.156;20.788;2024-02-16T18:11:18;16.60;;;13.60;;
38611;SDS011;24368;52.156;20.788;2024-02-16T18:16:21;17.00;;;15.10;;
38611;SDS011;24368;52.156;20.788;2024-02-16T18:21:28;19.60;;;16.30;;
38611;SDS011;24368;52.156;20.788;2024-02-16T18:26:32;18.00;;;16.10;;
38611;SDS011;24368;52.156;20.788;2024-02-16T18:31:35;20.80;;;16.80;;
38611;SDS011;24368;52.156;20.788;2024-02-16T18:36:39;23.00;;;17.60;;
38611;SDS011;24368;52.156;20.788;2024-02-16T18:41:41;20.10;;;16.80;;
38611;SDS011;24368;52.156;20.788;2024-02-16T18:46:43;21.00;;;17.50;;
38611;SDS011;24368;52.156;20.788;2024-02-16T18:51:46;24.30;;;18.90;;
38611;SDS011;24368;52.156;20.788;2024-02-16T18:56:48;23.60;;;19.30;;
38611;SDS011;24368;52.156;20.788;2024-02-16T19:01:51;23.30;;;19.90;;
38611;SDS011;24368;52.156;20.788;2024-02-16T19:06:55;18.80;;;16.80;;
38611;SDS011;24368;52.156;20.788;2024-02-16T19:11:58;18.90;;;16.60;;
38611;SDS011;24368;52.156;20.788;2024-02-16T19:17:01;20.40;;;16.70;;
38611;SDS011;24368;52.156;20.788;2024-02-16T19:22:04;20.90;;;17.40;;
38611;SDS011;24368;52.156;20.788;2024-02-16T19:27:07;20.40;;;17.60;;
38611;SDS011;24368;52.156;20.788;2024-02-16T19:32:09;22.80;;;18.40;;
38611;SDS011;24368;52.156;20.788;2024-02-16T19:37:11;19.70;;;17.60;;
38611;SDS011;24368;52.156;20.788;2024-02-16T19:42:13;21.20;;;18.90;;
38611;SDS011;24368;52.156;20.788;2024-02-16T19:47:15;22.00;;;18.20;;
38611;SDS011;24368;52.156;20.788;2024-02-16T19:52:18;20.40;;;18.10;;
38611;SDS011;24368;52.156;20.788;2024-02-16T19:57:24;21.30;;;18.20;;
38611;SDS011;24368;52.156;20.788;2024-02-16T20:02:26;20.20;;;18.10;;
38611;SDS011;24368;52.156;20.788;2024-02-16T20:07:32;22.50;;;18.20;;
38611;SDS011;24368;52.156;20.788;2024-02-16T20:12:35;24.40;;;21.60;;
38611;SDS011;24368;52.156;20.788;2024-02-16T20:17:38;21.40;;;19.10;;
38611;SDS011;24368;52.156;20.788;2024-02-16T20:22:40;22.50;;;19.50;;
38611;SDS011;24368;52.156;20.788;2024-02-16T20:27:43;23.30;;;20.00;;
38611;SDS011;24368;52.156;20.788;2024-02-16T20:32:45;23.20;;;18.40;;
38611;SDS011;24368;52.156;20.788;2024-02-16T20:37:47;22.50;;;18.30;;
38611;SDS011;24368;52.156;20.788;2024-02-16T20:42:50;21.20;;;18.40;;
38611;SDS011;24368;52.156;20.788;2024-02-16T20:47:52;22.30;;;18.90;;
38611;SDS011;24368;52.156;20.788;2024-02-16T20:52:54;22.20;;;19.20;;
38611;SDS011;24368;52.156;20.788;2024-02-16T20:57:55;21.30;;;17.50;;
38611;SDS011;24368;52.156;20.788;2024-02-16T21:02:57;23.30;;;19.10;;
38611;SDS011;24368;52.156;20.788;2024-02-16T21:08:00;22.80;;;19.70;;
38611;SDS011;24368;52.156;20.788;2024-02-16T21:13:02;20.60;;;18.30;;
38611;SDS011;24368;52.156;20.788;2024-02-16T21:18:06;24.40;;;19.50;;
38611;SDS011;24368;52.156;20.788;2024-02-16T21:23:09;22.40;;;18.70;;
38611;SDS011;24368;52.156;20.788;2024-02-16T21:28:10;20.90;;;18.00;;
38611;SDS011;24368;52.156;20.788;2024-02-16T21:33:14;22.40;;;18.80;;
38611;SDS011;24368;52.156;20.788;2024-02-16T21:38:17;22.10;;;18.60;;
38611;SDS011;24368;52.156;20.788;2024-02-16T21:43:21;25.40;;;19.50;;
38611;SDS011;24368;52.156;20.788;2024-02-16T21:48:23;19.90;;;17.80;;
38611;SDS011;24368;52.156;20.788;2024-02-16T21:53:25;21.20;;;19.00;;
38611;SDS011;24368;52.156;20.788;2024-02-16T21:58:27;23.80;;;19.10;;
38611;SDS011;24368;52.156;20.788;2024-02-16T22:03:29;23.70;;;19.70;;
38611;SDS011;24368;52.156;20.788;2024-02-16T22:08:31;25.30;;;18.80;;
38611;SDS011;24368;52.156;20.788;2024-02-16T22:13:33;20.60;;;18.40;;
38611;SDS011;24368;52.156;20.788;2024-02-16T22:18:36;27.30;;;19.90;;
38611;SDS011;24368;52.156;20.788;2024-02-16T22:28:44;24.60;;;20.10;;
38611;SDS011;24368;52.156;20.788;2024-02-16T22:33:46;24.60;;;19.90;;
38611;SDS011;24368;52.156;20.788;2024-02-16T22:38:48;25.70;;;19.60;;
38611;SDS011;24368;52.156;20.788;2024-02-16T22:43:51;24.10;;;20.00;;
38611;SDS011;24368;52.156;20.788;2024-02-16T22:48:53;21.90;;;19.50;;
38611;SDS011;24368;52.156;20.788;2024-02-16T22:53:55;24.70;;;20.40;;
38611;SDS011;24368;52.156;20.788;2024-02-16T22:58:57;24.90;;;19.30;;
38611;SDS011;24368;52.156;20.788;2024-02-16T23:03:59;23.50;;;20.10;;
38611;SDS011;24368;52.156;20.788;2024-02-16T23:09:04;20.90;;;18.00;;
38611;SDS011;24368;52.156;20.788;2024-02-16T23:19:11;22.50;;;18.60;;
38611;SDS011;24368;52.156;20.788;2024-02-16T23:24:14;24.40;;;20.10;;
38611;SDS011;24368;52.156;20.788;2024-02-16T23:29:17;25.80;;;20.10;;
38611;SDS011;24368;52.156;20.788;2024-02-16T23:34:19;24.90;;;20.30;;
38611;SDS011;24368;52.156;20.788;2024-02-16T23:39:21;22.30;;;19.10;;
38611;SDS011;24368;52.156;20.788;2024-02-16T23:44:23;25.20;;;21.10;;
38611;SDS011;24368;52.156;20.788;2024-02-16T23:49:27;24.50;;;20.40;;
38611;SDS011;24368;52.156;20.788;2024-02-16T23:54:30;23.90;;;19.40;;
38611;SDS011;24368;52.156;20.788;2024-02-16T23:59:32;20.90;;;18.00;;
